createdAt,value
2023-04-02T00:04:46.025Z,7.05
2023-04-02T00:09:50.227Z,7.07
2023-04-02T00:14:58.216Z,6.93
2023-04-02T00:20:07.804Z,6.94
2023-04-02T00:25:14.407Z,7.01
2023-04-02T00:30:18.731Z,7.01
2023-04-02T00:35:27.321Z,6.90
2023-04-02T00:40:32.838Z,6.97
2023-04-02T00:45:38.374Z,6.86
2023-04-02T00:50:45.745Z,6.95
2023-04-02T00:55:49.856Z,7.03
2023-04-02T01:00:54.323Z,6.92
2023-04-02T01:06:03.088Z,6.89
2023-04-02T01:11:16.449Z,6.84
2023-04-02T01:16:29.544Z,6.81
2023-04-02T01:21:43.115Z,6.79
2023-04-02T01:26:54.717Z,6.66
2023-04-02T01:32:03.651Z,6.67
2023-04-02T01:37:22.244Z,6.65
2023-04-02T01:42:33.521Z,6.61
2023-04-02T01:47:39.352Z,6.57
2023-04-02T01:52:45.396Z,6.56
2023-04-02T01:57:52.632Z,6.47
2023-04-02T02:02:58.406Z,6.37
2023-04-02T02:08:02.433Z,6.18
2023-04-02T02:13:06.829Z,6.07
2023-04-02T02:18:13.601Z,6.02
2023-04-02T02:23:17.972Z,6.02
2023-04-02T02:28:24.897Z,6.01
2023-04-02T02:33:33.741Z,5.83
2023-04-02T02:38:48.848Z,5.81
2023-04-02T02:44:03.488Z,5.77
2023-04-02T02:49:11.632Z,5.77
2023-04-02T02:54:16.348Z,5.73
2023-04-02T02:59:21.660Z,5.75
2023-04-02T03:04:30.629Z,5.72
2023-04-02T03:09:43.069Z,5.58
2023-04-02T03:14:54.710Z,5.37
2023-04-02T03:20:06.460Z,5.40
2023-04-02T03:25:25.461Z,5.32
2023-04-02T03:30:39.301Z,5.26
2023-04-02T03:35:49.238Z,5.18
2023-04-02T03:41:03.349Z,5.13
2023-04-02T03:46:19.709Z,5.07
2023-04-02T03:51:28.572Z,4.99
2023-04-02T03:56:39.856Z,4.97
2023-04-02T04:01:54.767Z,4.92
2023-04-02T04:07:02.356Z,4.91
2023-04-02T04:12:16.130Z,4.88
2023-04-02T04:17:29.946Z,4.83
2023-04-02T04:22:38.805Z,4.81
2023-04-02T04:28:05.893Z,4.78
2023-04-02T04:33:16.586Z,4.68
2023-04-02T04:38:32.961Z,4.66
2023-04-02T04:43:44.344Z,4.59
2023-04-02T04:48:53.634Z,4.40
2023-04-02T04:54:01.733Z,4.41
2023-04-02T04:59:17.116Z,4.25
2023-04-02T05:04:25.562Z,4.30
2023-04-02T05:09:35.197Z,4.16
2023-04-02T05:14:44.501Z,3.99
2023-04-02T05:19:52.455Z,3.90
2023-04-02T05:25:14.037Z,3.82
2023-04-02T05:30:38.537Z,3.77
2023-04-02T05:35:46.017Z,3.66
2023-04-02T05:40:59.672Z,3.60
2023-04-02T05:46:09.131Z,3.61
2023-04-02T05:51:17.814Z,3.68
2023-04-02T05:56:26.274Z,3.46
2023-04-02T06:01:36.473Z,3.29
2023-04-02T06:06:51.669Z,3.13
2023-04-02T06:12:03.607Z,2.96
2023-04-02T06:17:13.053Z,2.82
2023-04-02T06:22:25.493Z,2.68
2023-04-02T06:27:36.578Z,2.53
2023-04-02T06:32:43.712Z,2.46
2023-04-02T06:37:52.699Z,2.31
2023-04-02T06:43:07.054Z,2.39
2023-04-02T06:48:35.108Z,2.57
2023-04-02T06:53:42.265Z,2.61
2023-04-02T06:58:52.629Z,2.63
2023-04-02T07:03:58.328Z,2.44
2023-04-02T07:09:08.639Z,2.53
2023-04-02T07:14:17.514Z,2.65
2023-04-02T07:19:23.957Z,2.86
2023-04-02T07:24:33.997Z,3.12
2023-04-02T07:29:42.812Z,3.28
2023-04-02T07:34:47.390Z,3.38
2023-04-02T07:39:51.868Z,3.59
2023-04-02T07:44:57.865Z,3.56
2023-04-02T07:50:02.215Z,3.49
2023-04-02T07:55:07.856Z,3.53
2023-04-02T08:00:16.006Z,3.50
2023-04-02T08:05:20.621Z,3.42
2023-04-02T08:10:24.797Z,3.54
2023-04-02T08:15:30.349Z,3.54
2023-04-02T08:20:34.615Z,3.65
2023-04-02T08:25:38.761Z,3.65
2023-04-02T08:30:44.585Z,3.45
2023-04-02T08:35:49.647Z,3.53
2023-04-02T08:40:57.530Z,3.55
2023-04-02T08:46:10.696Z,3.63
2023-04-02T08:51:24.035Z,3.56
2023-04-02T08:56:31.887Z,3.67
2023-04-02T09:01:47.240Z,3.70
2023-04-02T09:06:53.775Z,3.70
2023-04-02T09:12:00.985Z,3.55
2023-04-02T09:17:14.042Z,3.70
2023-04-02T09:22:21.661Z,3.84
2023-04-02T09:27:27.384Z,4.00
2023-04-02T09:32:46.435Z,4.27
2023-04-02T09:38:11.570Z,4.33
2023-04-02T09:43:17.481Z,4.29
2023-04-02T09:48:27.110Z,4.22
2023-04-02T09:53:34.360Z,4.07
2023-04-02T09:58:38.397Z,4.27
2023-04-02T10:03:44.425Z,4.10
2023-04-02T10:08:48.673Z,4.38
2023-04-02T10:13:55.023Z,4.65
2023-04-02T10:19:05.342Z,4.68
2023-04-02T10:24:13.311Z,4.49
2023-04-02T10:29:27.452Z,4.14
2023-04-02T10:34:38.874Z,4.31
2023-04-02T10:39:47.417Z,4.39
2023-04-02T10:44:56.435Z,4.28
2023-04-02T10:50:09.352Z,4.04
2023-04-02T10:55:17.946Z,3.96
2023-04-02T11:00:25.135Z,4.01
2023-04-02T11:05:38.178Z,4.17
2023-04-02T11:10:45.814Z,4.15
2023-04-02T11:15:49.930Z,4.25
2023-04-02T11:21:01.169Z,4.21
2023-04-02T11:26:38.560Z,4.22
2023-04-02T11:31:43.743Z,4.00
2023-04-02T11:37:03.651Z,4.12
2023-04-02T11:42:27.361Z,4.19
2023-04-02T11:47:31.340Z,4.41
2023-04-02T11:52:50.768Z,4.25
2023-04-02T11:58:32.399Z,4.06
2023-04-02T12:03:47.982Z,3.94
2023-04-02T12:08:59.134Z,3.89
2023-04-02T12:14:07.539Z,3.90
2023-04-02T12:19:17.601Z,4.06
2023-04-02T12:24:24.833Z,3.91
2023-04-02T12:29:30.566Z,3.88
2023-04-02T12:34:35.236Z,3.83
2023-04-02T12:39:41.404Z,3.93
2023-04-02T12:44:50.278Z,3.96
2023-04-02T12:49:55.729Z,4.10
2023-04-02T12:55:03.614Z,4.00
2023-04-02T13:00:31.029Z,4.21
2023-04-02T13:05:39.548Z,3.95
2023-04-02T13:10:45.775Z,4.00
2023-04-02T13:16:05.898Z,3.90
2023-04-02T13:21:28.532Z,3.92
2023-04-02T13:26:35.604Z,4.01
2023-04-02T13:31:39.909Z,4.13
2023-04-02T13:37:10.147Z,4.12
2023-04-02T13:42:15.635Z,4.14
2023-04-02T13:47:19.789Z,4.19
2023-04-02T13:52:24.089Z,4.27
2023-04-02T13:57:29.746Z,4.47
2023-04-02T14:02:34.393Z,4.43
2023-04-02T14:07:51.833Z,4.33
2023-04-02T14:13:12.272Z,4.49
2023-04-02T14:18:28.737Z,4.22
2023-04-02T14:23:43.114Z,4.24
2023-04-02T14:28:57.550Z,4.03
2023-04-02T14:34:07.994Z,4.38
2023-04-02T14:39:18.498Z,4.28
2023-04-02T14:44:26.516Z,4.00
2023-04-02T14:49:36.103Z,3.91
2023-04-02T14:54:50.161Z,3.81
2023-04-02T15:00:01.878Z,3.69
2023-04-02T15:05:15.512Z,3.63
2023-04-02T15:10:27.337Z,3.60
2023-04-02T15:15:42.805Z,3.36
2023-04-02T15:20:57.796Z,3.42
2023-04-02T15:26:08.598Z,3.48
2023-04-02T15:31:15.618Z,3.42
2023-04-02T15:36:52.143Z,3.44
2023-04-02T15:42:05.561Z,3.29
2023-04-02T15:47:16.520Z,3.39
2023-04-02T15:52:27.000Z,3.24
2023-04-02T15:57:46.650Z,3.27
2023-04-02T16:03:18.422Z,3.22
2023-04-02T16:08:41.922Z,3.28
2023-04-02T16:13:47.526Z,3.20
2023-04-02T16:19:00.123Z,3.10
2023-04-02T16:24:07.168Z,3.05
2023-04-02T16:29:26.650Z,3.05
2023-04-02T16:34:38.782Z,3.11
2023-04-02T16:39:47.756Z,3.04
2023-04-02T16:45:01.391Z,2.97
2023-04-02T16:50:16.865Z,2.91
2023-04-02T16:55:32.385Z,2.95
2023-04-02T17:00:43.225Z,2.92
2023-04-02T17:05:54.689Z,2.90
2023-04-02T17:11:01.768Z,2.89
2023-04-02T17:16:13.465Z,2.87
2023-04-02T17:21:22.675Z,2.89
2023-04-02T17:26:29.009Z,2.95
2023-04-02T17:31:35.991Z,2.95
2023-04-02T17:36:45.111Z,2.80
2023-04-02T17:41:53.268Z,2.85
2023-04-02T17:47:02.453Z,2.83
2023-04-02T17:52:15.064Z,2.83
2023-04-02T17:57:33.431Z,2.75
2023-04-02T18:02:56.217Z,2.62
2023-04-02T18:08:13.758Z,2.61
2023-04-02T18:13:29.735Z,2.62
2023-04-02T18:18:50.810Z,2.63
2023-04-02T18:24:13.933Z,2.50
2023-04-02T18:29:27.438Z,2.48
2023-04-02T18:34:52.463Z,2.41
2023-04-02T18:40:09.240Z,2.35
2023-04-02T18:45:19.614Z,2.37
2023-04-02T18:50:25.838Z,2.37
2023-04-02T18:55:32.444Z,2.45
2023-04-02T19:00:40.044Z,2.41
2023-04-02T19:05:50.572Z,2.34
2023-04-02T19:11:00.132Z,2.35
2023-04-02T19:16:38.769Z,2.36
2023-04-02T19:22:00.485Z,2.32
2023-04-02T19:27:09.889Z,2.31
2023-04-02T19:32:21.583Z,2.39
2023-04-02T19:37:32.119Z,2.32
2023-04-02T19:42:45.029Z,2.34
2023-04-02T19:47:49.632Z,2.36
2023-04-02T19:52:53.828Z,2.16
2023-04-02T19:58:08.835Z,1.92
2023-04-02T20:03:21.699Z,1.86
2023-04-02T20:08:26.317Z,1.58
2023-04-02T20:13:32.132Z,1.51
2023-04-02T20:18:37.179Z,1.50
2023-04-02T20:23:41.923Z,1.47
2023-04-02T20:28:47.796Z,1.47
2023-04-02T20:33:55.646Z,1.39
2023-04-02T20:38:59.987Z,1.19
2023-04-02T20:44:05.533Z,1.14
2023-04-02T20:49:09.957Z,1.10
2023-04-02T20:54:14.238Z,1.04
2023-04-02T20:59:23.166Z,1.00
2023-04-02T21:04:28.921Z,0.96
2023-04-02T21:09:34.012Z,1.03
2023-04-02T21:14:40.343Z,0.98
2023-04-02T21:19:44.976Z,1.02
2023-04-02T21:24:49.251Z,1.02
2023-04-02T21:29:54.896Z,0.97
2023-04-02T21:34:59.003Z,0.99
2023-04-02T21:40:03.669Z,1.05
2023-04-02T21:45:10.253Z,1.10
2023-04-02T21:50:14.759Z,1.11
2023-04-02T21:55:18.913Z,1.17
2023-04-02T22:00:26.442Z,1.15
2023-04-02T22:05:31.295Z,1.20
2023-04-02T22:10:36.947Z,1.27
2023-04-02T22:15:42.550Z,1.25
2023-04-02T22:20:46.656Z,1.21
2023-04-02T22:25:51.347Z,1.30
2023-04-02T22:30:57.516Z,1.29
2023-04-02T22:36:01.747Z,1.26
2023-04-02T22:41:08.287Z,1.28
2023-04-02T22:46:16.469Z,1.34
2023-04-02T22:51:22.344Z,1.37
2023-04-02T22:56:31.752Z,1.38
2023-04-02T23:01:37.886Z,1.32
2023-04-02T23:06:42.122Z,1.36
2023-04-02T23:11:46.307Z,1.33
2023-04-02T23:16:51.953Z,1.28
2023-04-02T23:21:56.221Z,1.25
2023-04-02T23:27:02.237Z,1.36
2023-04-02T23:32:07.859Z,1.30
2023-04-02T23:37:12.144Z,1.30
2023-04-02T23:42:16.413Z,1.36
2023-04-02T23:47:22.559Z,1.36
2023-04-02T23:52:26.660Z,1.36
2023-04-02T23:57:30.636Z,1.30
